sensor_id;sensor_type;location;lat;lon;timestamp;temperature;humidity
21823;DHT22;11074;48.596;9.238;2023-11-21T00:01:57;9.00;99.90
21823;DHT22;11074;48.596;9.238;2023-11-21T00:04:24;9.00;99.90
21823;DHT22;11074;48.596;9.238;2023-11-21T00:06:50;9.00;99.90
21823;DHT22;11074;48.596;9.238;2023-11-21T00:09:16;8.90;99.90
21823;DHT22;11074;48.596;9.238;2023-11-21T00:11:43;8.90;99.90
21823;DHT22;11074;48.596;9.238;2023-11-21T00:14:10;8.90;99.90
21823;DHT22;11074;48.596;9.238;2023-11-21T00:16:36;8.90;99.90
21823;DHT22;11074;48.596;9.238;2023-11-21T00:19:02;8.80;99.90
21823;DHT22;11074;48.596;9.238;2023-11-21T00:21:28;8.80;99.90
21823;DHT22;11074;48.596;9.238;2023-11-21T00:23:53;8.80;99.90
21823;DHT22;11074;48.596;9.238;2023-11-21T00:26:19;8.80;99.90
21823;DHT22;11074;48.596;9.238;2023-11-21T00:28:44;8.80;99.90
21823;DHT22;11074;48.596;9.238;2023-11-21T00:31:10;8.90;99.90
21823;DHT22;11074;48.596;9.238;2023-11-21T00:33:37;8.90;99.90
21823;DHT22;11074;48.596;9.238;2023-11-21T00:36:02;8.80;99.90
21823;DHT22;11074;48.596;9.238;2023-11-21T00:38:28;8.80;99.90
21823;DHT22;11074;48.596;9.238;2023-11-21T00:40:54;8.80;99.90
21823;DHT22;11074;48.596;9.238;2023-11-21T00:43:24;8.80;99.90
21823;DHT22;11074;48.596;9.238;2023-11-21T00:45:50;8.80;99.90
21823;DHT22;11074;48.596;9.238;2023-11-21T00:48:16;8.70;99.90
21823;DHT22;11074;48.596;9.238;2023-11-21T00:50:43;8.80;99.90
21823;DHT22;11074;48.596;9.238;2023-11-21T00:53:09;8.80;99.90
21823;DHT22;11074;48.596;9.238;2023-11-21T00:55:36;8.80;99.90
21823;DHT22;11074;48.596;9.238;2023-11-21T00:58:03;8.90;99.90
21823;DHT22;11074;48.596;9.238;2023-11-21T01:00:29;8.80;99.90
21823;DHT22;11074;48.596;9.238;2023-11-21T01:02:55;8.70;99.90
21823;DHT22;11074;48.596;9.238;2023-11-21T01:05:21;8.70;99.90
21823;DHT22;11074;48.596;9.238;2023-11-21T01:07:47;8.80;99.90
21823;DHT22;11074;48.596;9.238;2023-11-21T01:10:12;8.80;99.90
21823;DHT22;11074;48.596;9.238;2023-11-21T01:12:38;8.80;99.90
21823;DHT22;11074;48.596;9.238;2023-11-21T01:15:07;8.70;99.90
21823;DHT22;11074;48.596;9.238;2023-11-21T01:17:33;8.70;99.90
21823;DHT22;11074;48.596;9.238;2023-11-21T01:20:02;8.70;99.90
21823;DHT22;11074;48.596;9.238;2023-11-21T01:22:31;8.70;99.90
21823;DHT22;11074;48.596;9.238;2023-11-21T01:24:57;8.70;99.90
21823;DHT22;11074;48.596;9.238;2023-11-21T01:27:23;8.70;99.90
21823;DHT22;11074;48.596;9.238;2023-11-21T01:29:48;8.80;99.90
21823;DHT22;11074;48.596;9.238;2023-11-21T01:32:14;8.80;99.90
21823;DHT22;11074;48.596;9.238;2023-11-21T01:34:40;8.80;99.90
21823;DHT22;11074;48.596;9.238;2023-11-21T01:37:05;8.80;99.90
21823;DHT22;11074;48.596;9.238;2023-11-21T01:39:31;8.80;99.90
21823;DHT22;11074;48.596;9.238;2023-11-21T01:41:57;8.80;99.90
21823;DHT22;11074;48.596;9.238;2023-11-21T01:44:26;8.80;99.90
21823;DHT22;11074;48.596;9.238;2023-11-21T01:46:52;8.90;99.90
21823;DHT22;11074;48.596;9.238;2023-11-21T01:49:19;8.90;99.90
21823;DHT22;11074;48.596;9.238;2023-11-21T01:51:47;8.70;99.90
21823;DHT22;11074;48.596;9.238;2023-11-21T01:54:16;8.70;99.90
21823;DHT22;11074;48.596;9.238;2023-11-21T01:56:47;8.70;99.90
21823;DHT22;11074;48.596;9.238;2023-11-21T01:59:20;8.70;99.90
21823;DHT22;11074;48.596;9.238;2023-11-21T02:01:47;8.70;99.90
21823;DHT22;11074;48.596;9.238;2023-11-21T02:04:13;8.70;99.90
21823;DHT22;11074;48.596;9.238;2023-11-21T02:06:39;8.70;99.90
21823;DHT22;11074;48.596;9.238;2023-11-21T02:09:05;8.70;99.90
21823;DHT22;11074;48.596;9.238;2023-11-21T02:11:31;8.70;99.90
21823;DHT22;11074;48.596;9.238;2023-11-21T02:13:59;8.60;99.90
21823;DHT22;11074;48.596;9.238;2023-11-21T02:16:26;8.60;99.90
21823;DHT22;11074;48.596;9.238;2023-11-21T02:18:53;8.70;99.90
21823;DHT22;11074;48.596;9.238;2023-11-21T02:21:18;8.70;99.90
21823;DHT22;11074;48.596;9.238;2023-11-21T02:23:47;8.70;99.90
21823;DHT22;11074;48.596;9.238;2023-11-21T02:26:13;8.60;99.90
21823;DHT22;11074;48.596;9.238;2023-11-21T02:28:39;8.60;99.90
21823;DHT22;11074;48.596;9.238;2023-11-21T02:31:05;8.60;99.90
21823;DHT22;11074;48.596;9.238;2023-11-21T02:33:33;8.60;99.90
21823;DHT22;11074;48.596;9.238;2023-11-21T02:36:00;8.50;99.90
21823;DHT22;11074;48.596;9.238;2023-11-21T02:38:26;8.50;99.90
21823;DHT22;11074;48.596;9.238;2023-11-21T02:40:52;8.50;99.90
21823;DHT22;11074;48.596;9.238;2023-11-21T02:43:17;8.40;99.90
21823;DHT22;11074;48.596;9.238;2023-11-21T02:45:44;8.40;99.90
21823;DHT22;11074;48.596;9.238;2023-11-21T02:48:09;8.40;99.90
21823;DHT22;11074;48.596;9.238;2023-11-21T02:50:35;8.40;99.90
21823;DHT22;11074;48.596;9.238;2023-11-21T02:53:01;8.30;99.90
21823;DHT22;11074;48.596;9.238;2023-11-21T02:55:27;8.40;99.90
21823;DHT22;11074;48.596;9.238;2023-11-21T02:57:53;8.30;99.90
21823;DHT22;11074;48.596;9.238;2023-11-21T03:00:21;8.30;99.90
21823;DHT22;11074;48.596;9.238;2023-11-21T03:02:49;8.40;99.90
21823;DHT22;11074;48.596;9.238;2023-11-21T03:05:15;8.40;99.90
21823;DHT22;11074;48.596;9.238;2023-11-21T03:07:41;8.40;99.90
21823;DHT22;11074;48.596;9.238;2023-11-21T03:10:08;8.40;99.90
21823;DHT22;11074;48.596;9.238;2023-11-21T03:12:34;8.30;99.90
21823;DHT22;11074;48.596;9.238;2023-11-21T03:15:00;8.30;99.90
21823;DHT22;11074;48.596;9.238;2023-11-21T03:17:27;8.40;99.90
21823;DHT22;11074;48.596;9.238;2023-11-21T03:19:54;8.40;99.90
21823;DHT22;11074;48.596;9.238;2023-11-21T03:22:20;8.40;99.90
21823;DHT22;11074;48.596;9.238;2023-11-21T03:24:45;8.30;99.90
21823;DHT22;11074;48.596;9.238;2023-11-21T03:27:11;8.40;99.90
21823;DHT22;11074;48.596;9.238;2023-11-21T03:29:37;8.40;99.90
21823;DHT22;11074;48.596;9.238;2023-11-21T03:32:03;8.20;99.90
21823;DHT22;11074;48.596;9.238;2023-11-21T03:34:30;8.30;99.90
21823;DHT22;11074;48.596;9.238;2023-11-21T03:36:55;8.30;99.90
21823;DHT22;11074;48.596;9.238;2023-11-21T03:39:21;8.30;99.90
21823;DHT22;11074;48.596;9.238;2023-11-21T03:41:47;8.30;99.90
21823;DHT22;11074;48.596;9.238;2023-11-21T03:44:14;8.30;99.90
21823;DHT22;11074;48.596;9.238;2023-11-21T03:46:40;8.30;99.90
21823;DHT22;11074;48.596;9.238;2023-11-21T03:49:06;8.30;99.90
21823;DHT22;11074;48.596;9.238;2023-11-21T03:51:33;8.20;99.90
21823;DHT22;11074;48.596;9.238;2023-11-21T03:53:59;8.20;99.90
21823;DHT22;11074;48.596;9.238;2023-11-21T03:56:25;8.20;99.90
21823;DHT22;11074;48.596;9.238;2023-11-21T03:58:50;8.20;99.90
21823;DHT22;11074;48.596;9.238;2023-11-21T04:01:21;8.10;99.90
21823;DHT22;11074;48.596;9.238;2023-11-21T04:03:48;8.20;99.90
21823;DHT22;11074;48.596;9.238;2023-11-21T04:06:14;8.10;99.90
21823;DHT22;11074;48.596;9.238;2023-11-21T04:08:40;8.10;99.90
21823;DHT22;11074;48.596;9.238;2023-11-21T04:11:06;8.10;99.90
21823;DHT22;11074;48.596;9.238;2023-11-21T04:13:31;8.10;99.90
21823;DHT22;11074;48.596;9.238;2023-11-21T04:15:57;8.20;99.90
21823;DHT22;11074;48.596;9.238;2023-11-21T04:18:23;8.20;99.90
21823;DHT22;11074;48.596;9.238;2023-11-21T04:20:49;8.20;99.90
21823;DHT22;11074;48.596;9.238;2023-11-21T04:23:15;8.10;99.90
21823;DHT22;11074;48.596;9.238;2023-11-21T04:25:41;8.10;99.90
21823;DHT22;11074;48.596;9.238;2023-11-21T04:28:06;8.20;99.90
21823;DHT22;11074;48.596;9.238;2023-11-21T04:30:32;8.20;99.90
21823;DHT22;11074;48.596;9.238;2023-11-21T04:32:58;8.10;99.90
21823;DHT22;11074;48.596;9.238;2023-11-21T04:35:24;8.20;99.90
21823;DHT22;11074;48.596;9.238;2023-11-21T04:37:49;8.20;99.90
21823;DHT22;11074;48.596;9.238;2023-11-21T04:40:16;8.20;99.90
21823;DHT22;11074;48.596;9.238;2023-11-21T04:42:42;8.30;99.90
21823;DHT22;11074;48.596;9.238;2023-11-21T04:45:08;8.30;99.90
21823;DHT22;11074;48.596;9.238;2023-11-21T04:47:35;8.40;99.90
21823;DHT22;11074;48.596;9.238;2023-11-21T04:50:02;8.40;99.90
21823;DHT22;11074;48.596;9.238;2023-11-21T04:52:29;8.30;99.90
21823;DHT22;11074;48.596;9.238;2023-11-21T04:54:55;8.30;99.90
21823;DHT22;11074;48.596;9.238;2023-11-21T04:57:22;8.40;99.90
21823;DHT22;11074;48.596;9.238;2023-11-21T04:59:49;8.40;99.90
21823;DHT22;11074;48.596;9.238;2023-11-21T05:02:15;8.50;99.90
21823;DHT22;11074;48.596;9.238;2023-11-21T05:04:41;8.50;99.90
21823;DHT22;11074;48.596;9.238;2023-11-21T05:07:08;8.50;99.90
21823;DHT22;11074;48.596;9.238;2023-11-21T05:09:34;8.40;99.90
21823;DHT22;11074;48.596;9.238;2023-11-21T05:12:01;8.50;99.90
21823;DHT22;11074;48.596;9.238;2023-11-21T05:14:27;8.50;99.90
21823;DHT22;11074;48.596;9.238;2023-11-21T05:16:52;8.50;99.90
21823;DHT22;11074;48.596;9.238;2023-11-21T05:19:18;8.40;99.90
21823;DHT22;11074;48.596;9.238;2023-11-21T05:21:44;8.40;99.90
21823;DHT22;11074;48.596;9.238;2023-11-21T05:24:10;8.50;99.90
21823;DHT22;11074;48.596;9.238;2023-11-21T05:26:35;8.40;99.90
21823;DHT22;11074;48.596;9.238;2023-11-21T05:29:01;8.50;99.90
21823;DHT22;11074;48.596;9.238;2023-11-21T05:31:27;8.50;99.90
21823;DHT22;11074;48.596;9.238;2023-11-21T05:33:52;8.40;99.90
21823;DHT22;11074;48.596;9.238;2023-11-21T05:36:18;8.50;99.90
21823;DHT22;11074;48.596;9.238;2023-11-21T05:38:44;8.50;99.90
21823;DHT22;11074;48.596;9.238;2023-11-21T05:41:11;8.60;99.90
21823;DHT22;11074;48.596;9.238;2023-11-21T05:43:39;8.60;99.90
21823;DHT22;11074;48.596;9.238;2023-11-21T05:46:05;8.60;99.90
21823;DHT22;11074;48.596;9.238;2023-11-21T05:48:32;8.60;99.90
21823;DHT22;11074;48.596;9.238;2023-11-21T05:50:58;8.60;99.90
21823;DHT22;11074;48.596;9.238;2023-11-21T05:53:24;8.60;99.90
21823;DHT22;11074;48.596;9.238;2023-11-21T05:55:53;8.60;99.90
21823;DHT22;11074;48.596;9.238;2023-11-21T05:58:18;8.60;99.90
21823;DHT22;11074;48.596;9.238;2023-11-21T06:00:44;8.70;99.90
21823;DHT22;11074;48.596;9.238;2023-11-21T06:03:10;8.60;99.90
21823;DHT22;11074;48.596;9.238;2023-11-21T06:05:35;8.50;99.90
21823;DHT22;11074;48.596;9.238;2023-11-21T06:08:01;8.50;99.90
21823;DHT22;11074;48.596;9.238;2023-11-21T06:10:27;8.50;99.90
21823;DHT22;11074;48.596;9.238;2023-11-21T06:12:53;8.50;99.90
21823;DHT22;11074;48.596;9.238;2023-11-21T06:15:19;8.60;99.90
21823;DHT22;11074;48.596;9.238;2023-11-21T06:17:46;8.60;99.90
21823;DHT22;11074;48.596;9.238;2023-11-21T06:20:15;8.60;99.90
21823;DHT22;11074;48.596;9.238;2023-11-21T06:22:44;8.60;99.90
21823;DHT22;11074;48.596;9.238;2023-11-21T06:25:13;8.50;99.90
21823;DHT22;11074;48.596;9.238;2023-11-21T06:27:41;8.50;99.90
21823;DHT22;11074;48.596;9.238;2023-11-21T06:30:08;8.50;99.90
21823;DHT22;11074;48.596;9.238;2023-11-21T06:32:38;8.50;99.90
21823;DHT22;11074;48.596;9.238;2023-11-21T06:35:05;8.50;99.90
21823;DHT22;11074;48.596;9.238;2023-11-21T06:37:32;8.50;99.90
21823;DHT22;11074;48.596;9.238;2023-11-21T06:39:59;8.40;99.90
21823;DHT22;11074;48.596;9.238;2023-11-21T06:42:26;8.40;99.90
21823;DHT22;11074;48.596;9.238;2023-11-21T06:44:53;8.40;99.90
21823;DHT22;11074;48.596;9.238;2023-11-21T06:47:24;8.40;99.90
21823;DHT22;11074;48.596;9.238;2023-11-21T06:49:51;8.40;99.90
21823;DHT22;11074;48.596;9.238;2023-11-21T06:52:18;8.30;99.90
21823;DHT22;11074;48.596;9.238;2023-11-21T06:54:44;8.20;99.90
21823;DHT22;11074;48.596;9.238;2023-11-21T06:57:11;8.30;99.90
21823;DHT22;11074;48.596;9.238;2023-11-21T06:59:37;8.30;99.90
21823;DHT22;11074;48.596;9.238;2023-11-21T07:02:03;8.30;99.90
21823;DHT22;11074;48.596;9.238;2023-11-21T07:04:38;8.20;99.90
21823;DHT22;11074;48.596;9.238;2023-11-21T07:07:04;8.30;99.90
21823;DHT22;11074;48.596;9.238;2023-11-21T07:09:32;8.40;99.90
21823;DHT22;11074;48.596;9.238;2023-11-21T07:11:58;8.40;99.90
21823;DHT22;11074;48.596;9.238;2023-11-21T07:14:23;8.50;99.90
21823;DHT22;11074;48.596;9.238;2023-11-21T07:16:49;8.50;99.90
21823;DHT22;11074;48.596;9.238;2023-11-21T07:19:15;8.50;99.90
21823;DHT22;11074;48.596;9.238;2023-11-21T07:21:41;8.50;99.90
21823;DHT22;11074;48.596;9.238;2023-11-21T07:24:07;8.50;99.90
21823;DHT22;11074;48.596;9.238;2023-11-21T07:26:34;8.50;99.90
21823;DHT22;11074;48.596;9.238;2023-11-21T07:29:01;8.50;99.90
21823;DHT22;11074;48.596;9.238;2023-11-21T07:31:31;8.50;99.90
21823;DHT22;11074;48.596;9.238;2023-11-21T07:33:59;8.60;99.90
21823;DHT22;11074;48.596;9.238;2023-11-21T07:36:26;8.60;99.90
21823;DHT22;11074;48.596;9.238;2023-11-21T07:38:52;8.70;99.90
21823;DHT22;11074;48.596;9.238;2023-11-21T07:41:19;8.70;99.90
21823;DHT22;11074;48.596;9.238;2023-11-21T07:43:45;8.80;99.90
21823;DHT22;11074;48.596;9.238;2023-11-21T07:46:12;8.80;99.90
21823;DHT22;11074;48.596;9.238;2023-11-21T07:48:39;8.80;99.90
21823;DHT22;11074;48.596;9.238;2023-11-21T07:51:06;8.90;99.90
21823;DHT22;11074;48.596;9.238;2023-11-21T07:53:32;8.80;99.90
21823;DHT22;11074;48.596;9.238;2023-11-21T07:56:02;8.80;99.90
21823;DHT22;11074;48.596;9.238;2023-11-21T07:58:29;8.80;99.90
21823;DHT22;11074;48.596;9.238;2023-11-21T08:00:59;8.80;99.90
21823;DHT22;11074;48.596;9.238;2023-11-21T08:03:25;8.80;99.90
21823;DHT22;11074;48.596;9.238;2023-11-21T08:05:58;8.80;99.90
21823;DHT22;11074;48.596;9.238;2023-11-21T08:08:24;8.90;99.90
21823;DHT22;11074;48.596;9.238;2023-11-21T08:10:51;8.80;99.90
21823;DHT22;11074;48.596;9.238;2023-11-21T08:13:26;8.90;99.90
21823;DHT22;11074;48.596;9.238;2023-11-21T08:15:58;8.90;99.90
21823;DHT22;11074;48.596;9.238;2023-11-21T08:18:30;8.90;99.90
21823;DHT22;11074;48.596;9.238;2023-11-21T08:20:56;9.00;99.90
21823;DHT22;11074;48.596;9.238;2023-11-21T08:23:22;9.00;99.90
21823;DHT22;11074;48.596;9.238;2023-11-21T08:25:52;9.00;99.90
21823;DHT22;11074;48.596;9.238;2023-11-21T08:28:18;9.00;99.90
21823;DHT22;11074;48.596;9.238;2023-11-21T08:30:45;9.00;99.90
21823;DHT22;11074;48.596;9.238;2023-11-21T08:33:10;9.00;99.90
21823;DHT22;11074;48.596;9.238;2023-11-21T08:35:37;9.10;99.90
21823;DHT22;11074;48.596;9.238;2023-11-21T08:38:03;9.00;99.90
21823;DHT22;11074;48.596;9.238;2023-11-21T08:40:29;9.10;99.90
21823;DHT22;11074;48.596;9.238;2023-11-21T08:42:56;9.10;99.90
21823;DHT22;11074;48.596;9.238;2023-11-21T08:45:24;9.10;99.90
21823;DHT22;11074;48.596;9.238;2023-11-21T08:47:51;9.10;99.90
21823;DHT22;11074;48.596;9.238;2023-11-21T08:50:17;9.10;99.90
21823;DHT22;11074;48.596;9.238;2023-11-21T08:52:44;9.10;99.90
21823;DHT22;11074;48.596;9.238;2023-11-21T08:55:11;9.00;99.90
21823;DHT22;11074;48.596;9.238;2023-11-21T08:57:41;9.10;99.90
21823;DHT22;11074;48.596;9.238;2023-11-21T09:00:09;9.10;99.90
21823;DHT22;11074;48.596;9.238;2023-11-21T09:02:43;9.10;99.90
21823;DHT22;11074;48.596;9.238;2023-11-21T09:05:10;9.10;99.90
21823;DHT22;11074;48.596;9.238;2023-11-21T09:07:39;9.20;99.90
21823;DHT22;11074;48.596;9.238;2023-11-21T09:10:07;9.20;99.90
21823;DHT22;11074;48.596;9.238;2023-11-21T09:12:34;9.20;99.90
21823;DHT22;11074;48.596;9.238;2023-11-21T09:15:03;9.20;99.90
21823;DHT22;11074;48.596;9.238;2023-11-21T09:17:30;9.30;99.90
21823;DHT22;11074;48.596;9.238;2023-11-21T09:19:56;9.30;99.90
21823;DHT22;11074;48.596;9.238;2023-11-21T09:22:22;9.20;99.90
21823;DHT22;11074;48.596;9.238;2023-11-21T09:24:50;9.20;99.90
21823;DHT22;11074;48.596;9.238;2023-11-21T09:27:16;9.30;99.90
21823;DHT22;11074;48.596;9.238;2023-11-21T09:29:42;9.30;99.90
21823;DHT22;11074;48.596;9.238;2023-11-21T09:32:09;9.30;99.90
21823;DHT22;11074;48.596;9.238;2023-11-21T09:34:38;9.30;99.90
21823;DHT22;11074;48.596;9.238;2023-11-21T09:37:04;9.30;99.90
21823;DHT22;11074;48.596;9.238;2023-11-21T09:39:34;9.30;99.90
21823;DHT22;11074;48.596;9.238;2023-11-21T09:42:10;9.30;99.90
21823;DHT22;11074;48.596;9.238;2023-11-21T09:44:54;9.40;99.90
21823;DHT22;11074;48.596;9.238;2023-11-21T09:47:26;9.50;99.90
21823;DHT22;11074;48.596;9.238;2023-11-21T09:49:54;9.60;99.90
21823;DHT22;11074;48.596;9.238;2023-11-21T09:52:26;9.70;99.90
21823;DHT22;11074;48.596;9.238;2023-11-21T09:54:53;9.60;99.90
21823;DHT22;11074;48.596;9.238;2023-11-21T09:57:23;9.70;99.90
21823;DHT22;11074;48.596;9.238;2023-11-21T09:59:51;9.70;99.90
21823;DHT22;11074;48.596;9.238;2023-11-21T10:02:26;9.70;99.90
21823;DHT22;11074;48.596;9.238;2023-11-21T10:04:59;9.80;99.90
21823;DHT22;11074;48.596;9.238;2023-11-21T10:07:26;9.70;99.90
21823;DHT22;11074;48.596;9.238;2023-11-21T10:09:54;9.80;99.90
21823;DHT22;11074;48.596;9.238;2023-11-21T10:12:22;9.80;99.90
21823;DHT22;11074;48.596;9.238;2023-11-21T10:14:50;9.70;99.90
21823;DHT22;11074;48.596;9.238;2023-11-21T10:17:18;9.70;99.90
21823;DHT22;11074;48.596;9.238;2023-11-21T10:19:47;9.70;99.90
21823;DHT22;11074;48.596;9.238;2023-11-21T10:22:15;9.70;99.90
21823;DHT22;11074;48.596;9.238;2023-11-21T10:24:42;9.70;99.90
21823;DHT22;11074;48.596;9.238;2023-11-21T10:27:09;9.60;99.90
21823;DHT22;11074;48.596;9.238;2023-11-21T10:29:34;9.60;99.90
21823;DHT22;11074;48.596;9.238;2023-11-21T10:32:02;9.60;99.90
21823;DHT22;11074;48.596;9.238;2023-11-21T10:34:29;9.70;99.90
21823;DHT22;11074;48.596;9.238;2023-11-21T10:36:55;9.70;99.90
21823;DHT22;11074;48.596;9.238;2023-11-21T10:39:23;9.70;99.90
21823;DHT22;11074;48.596;9.238;2023-11-21T10:41:54;9.70;99.90
21823;DHT22;11074;48.596;9.238;2023-11-21T10:44:20;9.70;99.90
21823;DHT22;11074;48.596;9.238;2023-11-21T10:46:52;9.80;99.90
21823;DHT22;11074;48.596;9.238;2023-11-21T10:49:22;9.80;99.90
21823;DHT22;11074;48.596;9.238;2023-11-21T10:51:53;9.90;99.90
21823;DHT22;11074;48.596;9.238;2023-11-21T10:54:20;9.90;99.90
21823;DHT22;11074;48.596;9.238;2023-11-21T10:56:49;10.00;99.90
21823;DHT22;11074;48.596;9.238;2023-11-21T10:59:17;9.90;99.90
21823;DHT22;11074;48.596;9.238;2023-11-21T11:01:45;9.90;99.90
21823;DHT22;11074;48.596;9.238;2023-11-21T11:04:14;9.90;99.90
21823;DHT22;11074;48.596;9.238;2023-11-21T11:06:47;9.90;99.90
21823;DHT22;11074;48.596;9.238;2023-11-21T11:09:19;10.00;99.90
21823;DHT22;11074;48.596;9.238;2023-11-21T11:11:46;9.90;99.90
21823;DHT22;11074;48.596;9.238;2023-11-21T11:14:13;9.90;99.90
21823;DHT22;11074;48.596;9.238;2023-11-21T11:16:40;9.90;99.90
21823;DHT22;11074;48.596;9.238;2023-11-21T11:19:08;9.90;99.90
21823;DHT22;11074;48.596;9.238;2023-11-21T11:21:53;9.90;
21823;DHT22;11074;48.596;9.238;2023-11-21T11:25:03;9.90;99.90
21823;DHT22;11074;48.596;9.238;2023-11-21T11:33:53;9.80;99.90
21823;DHT22;11074;48.596;9.238;2023-11-21T11:39:37;9.80;99.90
21823;DHT22;11074;48.596;9.238;2023-11-21T11:42:07;9.80;99.90
21823;DHT22;11074;48.596;9.238;2023-11-21T11:47:25;9.80;99.90
21823;DHT22;11074;48.596;9.238;2023-11-21T11:52:49;9.70;99.90
21823;DHT22;11074;48.596;9.238;2023-11-21T11:55:18;9.70;99.90
21823;DHT22;11074;48.596;9.238;2023-11-21T12:02:57;9.60;99.90
21823;DHT22;11074;48.596;9.238;2023-11-21T12:05:27;9.50;99.90
21823;DHT22;11074;48.596;9.238;2023-11-21T12:07:54;9.50;99.90
21823;DHT22;11074;48.596;9.238;2023-11-21T12:10:27;9.50;99.90
21823;DHT22;11074;48.596;9.238;2023-11-21T12:12:59;9.50;99.90
21823;DHT22;11074;48.596;9.238;2023-11-21T12:15:27;9.60;99.90
21823;DHT22;11074;48.596;9.238;2023-11-21T12:17:57;9.50;99.90
21823;DHT22;11074;48.596;9.238;2023-11-21T12:20:26;9.50;99.90
21823;DHT22;11074;48.596;9.238;2023-11-21T12:22:57;9.50;99.90
21823;DHT22;11074;48.596;9.238;2023-11-21T12:25:30;9.40;99.90
21823;DHT22;11074;48.596;9.238;2023-11-21T12:28:00;9.40;99.90
21823;DHT22;11074;48.596;9.238;2023-11-21T12:30:30;9.40;99.90
21823;DHT22;11074;48.596;9.238;2023-11-21T12:32:58;9.50;99.90
21823;DHT22;11074;48.596;9.238;2023-11-21T12:35:27;9.50;99.90
21823;DHT22;11074;48.596;9.238;2023-11-21T12:37:55;9.60;99.90
21823;DHT22;11074;48.596;9.238;2023-11-21T12:40:24;9.60;99.90
21823;DHT22;11074;48.596;9.238;2023-11-21T12:42:55;9.60;99.90
21823;DHT22;11074;48.596;9.238;2023-11-21T12:45:24;9.60;99.90
21823;DHT22;11074;48.596;9.238;2023-11-21T12:48:01;9.70;99.90
21823;DHT22;11074;48.596;9.238;2023-11-21T12:50:33;9.70;99.90
21823;DHT22;11074;48.596;9.238;2023-11-21T12:53:02;9.70;99.90
21823;DHT22;11074;48.596;9.238;2023-11-21T12:55:34;9.70;99.90
21823;DHT22;11074;48.596;9.238;2023-11-21T12:58:05;9.80;99.90
21823;DHT22;11074;48.596;9.238;2023-11-21T13:00:37;9.90;99.90
21823;DHT22;11074;48.596;9.238;2023-11-21T13:03:05;9.90;99.90
21823;DHT22;11074;48.596;9.238;2023-11-21T13:05:39;9.90;99.90
21823;DHT22;11074;48.596;9.238;2023-11-21T13:08:10;10.00;99.90
21823;DHT22;11074;48.596;9.238;2023-11-21T13:10:39;10.00;99.90
21823;DHT22;11074;48.596;9.238;2023-11-21T13:13:10;10.00;99.90
21823;DHT22;11074;48.596;9.238;2023-11-21T13:15:53;10.00;99.90
21823;DHT22;11074;48.596;9.238;2023-11-21T13:18:26;10.00;99.90
21823;DHT22;11074;48.596;9.238;2023-11-21T13:20:54;10.00;99.90
21823;DHT22;11074;48.596;9.238;2023-11-21T13:23:21;10.00;99.90
21823;DHT22;11074;48.596;9.238;2023-11-21T13:25:48;10.00;99.90
21823;DHT22;11074;48.596;9.238;2023-11-21T13:28:15;10.00;99.90
21823;DHT22;11074;48.596;9.238;2023-11-21T13:30:48;10.00;99.90
21823;DHT22;11074;48.596;9.238;2023-11-21T13:33:14;9.90;99.90
21823;DHT22;11074;48.596;9.238;2023-11-21T13:35:43;9.90;99.90
21823;DHT22;11074;48.596;9.238;2023-11-21T13:38:18;9.90;99.90
21823;DHT22;11074;48.596;9.238;2023-11-21T13:40:52;9.90;99.90
21823;DHT22;11074;48.596;9.238;2023-11-21T13:43:23;9.80;99.90
21823;DHT22;11074;48.596;9.238;2023-11-21T13:45:52;9.80;99.90
21823;DHT22;11074;48.596;9.238;2023-11-21T13:48:37;9.80;99.90
21823;DHT22;11074;48.596;9.238;2023-11-21T13:51:06;9.80;99.90
21823;DHT22;11074;48.596;9.238;2023-11-21T13:53:43;9.70;99.90
21823;DHT22;11074;48.596;9.238;2023-11-21T13:56:11;9.80;99.90
21823;DHT22;11074;48.596;9.238;2023-11-21T13:58:38;9.70;99.90
21823;DHT22;11074;48.596;9.238;2023-11-21T14:01:19;9.70;99.90
21823;DHT22;11074;48.596;9.238;2023-11-21T14:04:01;9.70;99.90
21823;DHT22;11074;48.596;9.238;2023-11-21T14:06:49;9.70;99.90
21823;DHT22;11074;48.596;9.238;2023-11-21T14:09:20;9.70;99.90
21823;DHT22;11074;48.596;9.238;2023-11-21T14:11:55;9.70;99.90
21823;DHT22;11074;48.596;9.238;2023-11-21T14:14:24;9.70;99.90
21823;DHT22;11074;48.596;9.238;2023-11-21T14:16:52;9.60;99.90
21823;DHT22;11074;48.596;9.238;2023-11-21T14:19:20;9.70;99.90
21823;DHT22;11074;48.596;9.238;2023-11-21T14:21:47;9.60;99.90
21823;DHT22;11074;48.596;9.238;2023-11-21T14:24:14;9.70;99.90
21823;DHT22;11074;48.596;9.238;2023-11-21T14:26:44;9.60;99.90
21823;DHT22;11074;48.596;9.238;2023-11-21T14:29:15;9.70;99.90
21823;DHT22;11074;48.596;9.238;2023-11-21T14:31:45;9.70;99.90
21823;DHT22;11074;48.596;9.238;2023-11-21T14:34:12;9.60;99.90
21823;DHT22;11074;48.596;9.238;2023-11-21T14:36:39;9.60;99.90
21823;DHT22;11074;48.596;9.238;2023-11-21T14:39:05;9.60;99.90
21823;DHT22;11074;48.596;9.238;2023-11-21T14:41:46;9.60;99.90
21823;DHT22;11074;48.596;9.238;2023-11-21T14:44:12;9.60;99.90
21823;DHT22;11074;48.596;9.238;2023-11-21T14:46:40;9.60;99.90
21823;DHT22;11074;48.596;9.238;2023-11-21T14:49:09;9.60;99.90
21823;DHT22;11074;48.596;9.238;2023-11-21T14:51:53;9.60;99.90
21823;DHT22;11074;48.596;9.238;2023-11-21T14:54:29;9.60;99.90
21823;DHT22;11074;48.596;9.238;2023-11-21T14:57:08;9.60;99.90
21823;DHT22;11074;48.596;9.238;2023-11-21T14:59:42;9.60;99.90
21823;DHT22;11074;48.596;9.238;2023-11-21T15:02:10;9.60;99.90
21823;DHT22;11074;48.596;9.238;2023-11-21T15:04:44;9.60;99.90
21823;DHT22;11074;48.596;9.238;2023-11-21T15:07:10;9.60;99.90
21823;DHT22;11074;48.596;9.238;2023-11-21T15:09:38;9.50;99.90
21823;DHT22;11074;48.596;9.238;2023-11-21T15:12:08;9.50;99.90
21823;DHT22;11074;48.596;9.238;2023-11-21T15:14:44;9.50;99.90
21823;DHT22;11074;48.596;9.238;2023-11-21T15:17:14;9.50;99.90
21823;DHT22;11074;48.596;9.238;2023-11-21T15:19:47;9.50;99.90
21823;DHT22;11074;48.596;9.238;2023-11-21T15:22:13;9.50;99.90
21823;DHT22;11074;48.596;9.238;2023-11-21T15:24:41;9.50;99.90
21823;DHT22;11074;48.596;9.238;2023-11-21T15:27:10;9.50;99.90
21823;DHT22;11074;48.596;9.238;2023-11-21T15:29:36;9.50;99.90
21823;DHT22;11074;48.596;9.238;2023-11-21T15:32:03;9.50;99.90
21823;DHT22;11074;48.596;9.238;2023-11-21T15:34:29;9.50;99.90
21823;DHT22;11074;48.596;9.238;2023-11-21T15:36:56;9.40;99.90
21823;DHT22;11074;48.596;9.238;2023-11-21T15:39:22;9.40;99.90
21823;DHT22;11074;48.596;9.238;2023-11-21T15:41:50;9.40;99.90
21823;DHT22;11074;48.596;9.238;2023-11-21T15:44:16;9.40;99.90
21823;DHT22;11074;48.596;9.238;2023-11-21T15:46:42;9.40;99.90
21823;DHT22;11074;48.596;9.238;2023-11-21T15:49:07;9.40;99.90
21823;DHT22;11074;48.596;9.238;2023-11-21T15:51:44;9.40;99.90
21823;DHT22;11074;48.596;9.238;2023-11-21T15:54:12;9.40;99.90
21823;DHT22;11074;48.596;9.238;2023-11-21T15:56:38;9.40;99.90
21823;DHT22;11074;48.596;9.238;2023-11-21T15:59:04;9.40;99.90
21823;DHT22;11074;48.596;9.238;2023-11-21T16:01:31;9.40;99.90
21823;DHT22;11074;48.596;9.238;2023-11-21T16:03:57;9.40;99.90
21823;DHT22;11074;48.596;9.238;2023-11-21T16:06:26;9.40;99.90
21823;DHT22;11074;48.596;9.238;2023-11-21T16:08:52;9.40;99.90
21823;DHT22;11074;48.596;9.238;2023-11-21T16:11:19;9.40;99.90